Aviation Digital Data Service (ADDS)

Output produced by METARs form (1729 UTC 21 September 2019)
found at http://aviationweather.gov/metar/data/
 
KMLU 211653Z 17010KT 10SM FEW041 SCT050 31/21 A3017 RMK AO2 SLP215 T03060206
KMLU 211140Z 2112/2212 10003KT 6SM BR FEW005 FEW250 
     FM211500 15007KT P6SM SCT020 SCT040 
     FM211800 15006KT P6SM SCT050 
     FM220000 13003KT P6SM SCT250